createdAt,value
2023-04-15T00:00:08.473Z,59.27
2023-04-15T00:01:08.371Z,59.36
2023-04-15T00:02:08.448Z,58.87
2023-04-15T00:03:08.545Z,58.78
2023-04-15T00:04:08.529Z,59.05
2023-04-15T00:05:08.385Z,59.37
2023-04-15T00:06:08.464Z,59.93
2023-04-15T00:07:08.526Z,59.95
2023-04-15T00:08:08.499Z,59.75
2023-04-15T00:09:08.521Z,60.13
2023-04-15T00:10:08.541Z,59.38
2023-04-15T00:11:08.570Z,59.54
2023-04-15T00:12:08.553Z,59.33
2023-04-15T00:13:08.592Z,60.49
2023-04-15T00:14:08.662Z,59.62
2023-04-15T00:15:08.734Z,59.66
2023-04-15T00:16:08.851Z,60.24
2023-04-15T00:17:08.855Z,60.42
2023-04-15T00:18:08.945Z,59.99
2023-04-15T00:19:08.901Z,60.65
2023-04-15T00:20:09.682Z,59.67
2023-04-15T00:21:09.066Z,59.52
2023-04-15T00:22:08.941Z,60.05
2023-04-15T00:23:08.976Z,59.86
2023-04-15T00:24:09.046Z,59.63
2023-04-15T00:25:09.076Z,59.42
2023-04-15T00:26:09.189Z,59.34
2023-04-15T00:27:09.207Z,58.94
2023-04-15T00:28:09.283Z,59.37
2023-04-15T00:29:09.561Z,58.97
2023-04-15T00:30:09.317Z,59.43
2023-04-15T00:31:09.370Z,59.44
2023-04-15T00:32:09.401Z,60.24
2023-04-15T00:33:09.432Z,59.85
2023-04-15T00:34:09.533Z,59.90
2023-04-15T00:35:09.577Z,60.06
2023-04-15T00:36:09.580Z,59.38
2023-04-15T00:37:09.651Z,59.09
2023-04-15T00:38:09.710Z,58.56
2023-04-15T00:39:09.746Z,58.61
2023-04-15T00:40:09.808Z,58.38
2023-04-15T00:41:09.854Z,57.89
2023-04-15T00:42:09.845Z,58.20
2023-04-15T00:43:09.911Z,57.69
2023-04-15T00:44:09.886Z,57.62
2023-04-15T00:45:10.092Z,57.85
2023-04-15T00:46:09.958Z,57.34
2023-04-15T00:47:09.995Z,58.34
2023-04-15T00:48:10.005Z,58.23
2023-04-15T00:49:10.082Z,57.95
2023-04-15T00:50:10.561Z,57.95
2023-04-15T00:51:10.113Z,58.08
2023-04-15T00:52:10.134Z,57.34
2023-04-15T00:53:10.151Z,57.67
2023-04-15T00:54:10.172Z,58.32
2023-04-15T00:55:11.060Z,58.39
2023-04-15T00:56:10.260Z,58.73
2023-04-15T00:57:10.275Z,58.44
2023-04-15T00:58:10.326Z,58.06
2023-04-15T00:59:10.389Z,57.88
2023-04-15T01:00:10.399Z,57.78
2023-04-15T01:01:10.408Z,57.66
2023-04-15T01:02:10.572Z,57.14
2023-04-15T01:03:10.573Z,57.33
2023-04-15T01:04:10.585Z,57.19
2023-04-15T01:05:10.571Z,57.19
2023-04-15T01:06:10.594Z,57.14
2023-04-15T01:07:10.604Z,57.91
2023-04-15T01:08:10.656Z,57.98
2023-04-15T01:09:11.072Z,57.76
2023-04-15T01:10:10.724Z,57.50
2023-04-15T01:11:10.748Z,57.15
2023-04-15T01:12:10.784Z,56.68
2023-04-15T01:13:10.821Z,57.02
2023-04-15T01:14:10.897Z,56.67
2023-04-15T01:15:10.916Z,57.67
2023-04-15T01:16:10.998Z,57.38
2023-04-15T01:17:11.000Z,57.51
2023-04-15T01:18:11.072Z,57.07
2023-04-15T01:19:11.096Z,56.38
2023-04-15T01:20:11.110Z,56.87
2023-04-15T01:21:11.141Z,56.54
2023-04-15T01:22:11.209Z,57.18
2023-04-15T01:23:11.230Z,56.54
2023-04-15T01:24:11.240Z,56.37
2023-04-15T01:25:11.251Z,57.03
2023-04-15T01:26:11.323Z,56.68
2023-04-15T01:27:11.352Z,56.58
2023-04-15T01:28:11.369Z,56.82
2023-04-15T01:29:12.041Z,56.13
2023-04-15T01:30:11.507Z,56.05
2023-04-15T01:31:11.662Z,55.78
2023-04-15T01:32:11.591Z,55.32
2023-04-15T01:33:11.600Z,55.07
2023-04-15T01:34:12.081Z,54.94
2023-04-15T01:35:11.638Z,55.02
2023-04-15T01:36:11.668Z,54.85
2023-04-15T01:37:11.737Z,53.92
2023-04-15T01:38:11.763Z,53.36
2023-04-15T01:39:12.550Z,52.97
2023-04-15T01:40:11.898Z,52.46
2023-04-15T01:41:11.858Z,52.38
2023-04-15T01:42:11.891Z,52.43
2023-04-15T01:43:11.896Z,52.31
2023-04-15T01:44:11.925Z,53.36
2023-04-15T01:45:11.926Z,53.53
2023-04-15T01:46:11.976Z,53.46
2023-04-15T01:47:11.971Z,53.21
2023-04-15T01:48:11.996Z,53.52
2023-04-15T01:49:12.063Z,51.42
2023-04-15T01:50:12.098Z,50.70
2023-04-15T01:51:12.171Z,50.28
2023-04-15T01:52:12.188Z,49.32
2023-04-15T01:53:12.139Z,52.20
2023-04-15T01:54:12.165Z,53.61
2023-04-15T01:55:12.187Z,53.84
2023-04-15T01:56:12.196Z,54.03
2023-04-15T01:57:12.231Z,53.94
2023-04-15T01:58:12.333Z,53.87
2023-04-15T01:59:12.357Z,54.38
2023-04-15T02:00:14.127Z,53.84
2023-04-15T02:01:12.483Z,53.47
2023-04-15T02:02:12.492Z,51.57
2023-04-15T02:03:12.579Z,51.44
2023-04-15T02:04:12.565Z,52.74
2023-04-15T02:05:12.618Z,53.05
2023-04-15T02:06:12.643Z,52.31
2023-04-15T02:07:12.665Z,52.56
2023-04-15T02:08:12.678Z,50.90
2023-04-15T02:09:12.784Z,49.86
2023-04-15T02:10:12.762Z,51.52
2023-04-15T02:11:12.780Z,52.12
2023-04-15T02:12:12.863Z,50.60
2023-04-15T02:13:12.929Z,50.46
2023-04-15T02:14:12.888Z,51.51
2023-04-15T02:15:12.925Z,51.90
2023-04-15T02:16:12.980Z,50.47
2023-04-15T02:17:12.959Z,50.20
2023-04-15T02:18:13.010Z,49.86
2023-04-15T02:19:12.980Z,49.01
2023-04-15T02:20:13.105Z,48.85
2023-04-15T02:21:13.036Z,48.88
2023-04-15T02:22:13.148Z,47.73
2023-04-15T02:23:13.115Z,47.47
2023-04-15T02:24:13.141Z,48.16
2023-04-15T02:25:13.149Z,48.46
2023-04-15T02:26:13.216Z,49.10
2023-04-15T02:27:13.235Z,48.68
2023-04-15T02:28:13.252Z,48.49
2023-04-15T02:29:13.300Z,49.11
2023-04-15T02:30:13.294Z,48.94
2023-04-15T02:31:13.309Z,49.08
2023-04-15T02:32:13.454Z,49.11
2023-04-15T02:33:13.436Z,48.79
2023-04-15T02:34:13.428Z,48.15
2023-04-15T02:35:13.501Z,47.92
2023-04-15T02:36:13.463Z,47.71
2023-04-15T02:37:13.487Z,47.62
2023-04-15T02:38:13.449Z,48.01
2023-04-15T02:39:13.460Z,48.55
2023-04-15T02:40:13.551Z,47.68
2023-04-15T02:41:13.554Z,48.24
2023-04-15T02:42:13.554Z,48.89
2023-04-15T02:43:13.587Z,48.32
2023-04-15T02:44:13.663Z,49.79
2023-04-15T02:45:13.768Z,49.70
2023-04-15T02:46:13.773Z,49.83
2023-04-15T02:47:13.824Z,49.35
2023-04-15T02:48:13.870Z,48.35
2023-04-15T02:49:13.837Z,48.14
2023-04-15T02:50:13.932Z,47.03
2023-04-15T02:51:13.982Z,47.47
2023-04-15T02:52:13.976Z,47.69
2023-04-15T02:53:14.006Z,47.42
2023-04-15T02:54:14.106Z,47.18
2023-04-15T02:55:14.134Z,47.06
2023-04-15T02:56:14.175Z,46.59
2023-04-15T02:57:14.218Z,46.50
2023-04-15T02:58:14.272Z,47.76
2023-04-15T02:59:14.386Z,47.08
2023-04-15T03:00:14.421Z,47.73
2023-04-15T03:01:14.430Z,48.87
2023-04-15T03:02:14.509Z,48.03
2023-04-15T03:03:14.704Z,48.20
2023-04-15T03:04:14.701Z,48.80
2023-04-15T03:05:14.434Z,49.02
2023-04-15T03:06:14.474Z,48.74
2023-04-15T03:07:14.467Z,48.64
2023-04-15T03:08:14.470Z,49.17
2023-04-15T03:09:14.525Z,49.24
2023-04-15T03:10:14.585Z,49.54
2023-04-15T03:11:14.499Z,49.64
2023-04-15T03:12:14.513Z,49.87
2023-04-15T03:13:14.538Z,49.79
2023-04-15T03:14:14.559Z,49.63
2023-04-15T03:15:14.562Z,49.50
2023-04-15T03:16:14.678Z,48.89
2023-04-15T03:17:14.545Z,48.47
2023-04-15T03:18:14.587Z,49.46
2023-04-15T03:19:14.610Z,48.98
2023-04-15T03:20:14.683Z,48.29
2023-04-15T03:21:14.663Z,47.87
2023-04-15T03:22:14.716Z,48.76
2023-04-15T03:23:14.810Z,48.00
2023-04-15T03:24:14.822Z,48.55
2023-04-15T03:25:14.887Z,48.08
2023-04-15T03:26:14.906Z,47.67
2023-04-15T03:27:14.939Z,47.54
2023-04-15T03:28:14.964Z,47.64
2023-04-15T03:29:15.034Z,47.53
2023-04-15T03:30:15.082Z,48.28
2023-04-15T03:31:15.086Z,48.62
2023-04-15T03:32:15.173Z,48.24
2023-04-15T03:33:15.088Z,47.43
2023-04-15T03:34:15.109Z,47.49
2023-04-15T03:35:15.156Z,47.30
2023-04-15T03:36:15.206Z,47.20
2023-04-15T03:37:15.283Z,46.69
2023-04-15T03:38:15.311Z,46.70
2023-04-15T03:39:15.359Z,47.30
2023-04-15T03:40:15.385Z,46.96
2023-04-15T03:41:15.457Z,47.37
2023-04-15T03:42:15.460Z,47.03
2023-04-15T03:43:15.515Z,47.36
2023-04-15T03:44:15.564Z,47.25
2023-04-15T03:45:15.680Z,47.43
2023-04-15T03:46:15.682Z,46.70
2023-04-15T03:47:15.692Z,46.61
2023-04-15T03:48:17.876Z,46.84
2023-04-15T03:49:15.967Z,46.44
2023-04-15T03:50:16.004Z,45.59
2023-04-15T03:51:16.052Z,46.02
2023-04-15T03:52:16.073Z,45.97
2023-04-15T03:53:16.093Z,45.30
2023-04-15T03:54:16.133Z,45.39
2023-04-15T03:55:16.273Z,44.93
2023-04-15T03:56:16.220Z,44.36
2023-04-15T03:57:16.266Z,44.68
2023-04-15T03:58:16.311Z,44.57
2023-04-15T03:59:16.338Z,44.48
2023-04-15T04:00:16.414Z,44.33
2023-04-15T04:01:16.447Z,44.23
2023-04-15T04:02:16.573Z,43.92
2023-04-15T04:03:16.646Z,43.97
2023-04-15T04:04:16.577Z,43.66
2023-04-15T04:05:16.543Z,43.17
2023-04-15T04:06:16.578Z,43.16
2023-04-15T04:07:16.559Z,42.93
2023-04-15T04:08:16.576Z,42.84
2023-04-15T04:09:16.590Z,42.30
2023-04-15T04:10:16.608Z,42.64
2023-04-15T04:11:16.667Z,42.64
2023-04-15T04:12:16.822Z,43.73
2023-04-15T04:13:16.769Z,42.64
2023-04-15T04:14:16.874Z,42.74
2023-04-15T04:15:16.853Z,43.00
2023-04-15T04:16:16.934Z,42.58
2023-04-15T04:17:16.870Z,42.55
2023-04-15T04:18:16.938Z,42.44
2023-04-15T04:19:16.940Z,42.11
2023-04-15T04:20:16.989Z,42.28
2023-04-15T04:21:17.032Z,42.49
2023-04-15T04:22:17.133Z,42.64
2023-04-15T04:23:17.057Z,42.34
2023-04-15T04:24:17.089Z,42.45
2023-04-15T04:25:17.236Z,42.11
2023-04-15T04:26:17.626Z,42.26
2023-04-15T04:27:17.329Z,41.96
2023-04-15T04:28:17.443Z,41.74
2023-04-15T04:29:17.528Z,41.80
2023-04-15T04:30:17.671Z,42.26
2023-04-15T04:31:17.657Z,42.30
2023-04-15T04:32:17.678Z,41.37
2023-04-15T04:33:17.771Z,41.20
2023-04-15T04:34:17.760Z,41.31
2023-04-15T04:35:17.831Z,41.91
2023-04-15T04:36:17.905Z,41.91
2023-04-15T04:37:17.942Z,42.09
2023-04-15T04:38:17.955Z,41.63
2023-04-15T04:39:18.031Z,41.72
2023-04-15T04:40:18.101Z,41.42
2023-04-15T04:41:18.134Z,41.22
2023-04-15T04:42:18.074Z,41.37
2023-04-15T04:43:18.140Z,41.21
2023-04-15T04:44:18.150Z,41.25
2023-04-15T04:45:19.164Z,42.62
2023-04-15T04:46:18.228Z,42.71
2023-04-15T04:47:18.221Z,43.96
2023-04-15T04:48:18.318Z,43.53
2023-04-15T04:49:18.332Z,43.44
2023-04-15T04:50:18.378Z,44.36
2023-04-15T04:51:18.423Z,43.29
2023-04-15T04:52:18.401Z,43.80
2023-04-15T04:53:19.092Z,43.89
2023-04-15T04:54:18.454Z,43.53
2023-04-15T04:55:18.478Z,44.22
2023-04-15T04:56:18.498Z,43.95
2023-04-15T04:57:18.556Z,44.76
2023-04-15T04:58:18.614Z,44.08
2023-04-15T04:59:19.498Z,43.89
2023-04-15T05:00:18.668Z,44.31
2023-04-15T05:01:18.700Z,43.39
2023-04-15T05:02:18.798Z,44.58
2023-04-15T05:03:18.987Z,43.82
2023-04-15T05:04:18.771Z,42.75
2023-04-15T05:05:18.810Z,44.24
2023-04-15T05:06:19.744Z,44.28
2023-04-15T05:07:18.928Z,44.07
2023-04-15T05:08:18.922Z,43.57
2023-04-15T05:09:18.975Z,43.52
2023-04-15T05:10:19.008Z,44.87
2023-04-15T05:11:19.044Z,43.23
2023-04-15T05:12:19.058Z,42.86
2023-04-15T05:13:19.069Z,42.82
2023-04-15T05:14:19.220Z,42.79
2023-04-15T05:15:19.273Z,42.59
2023-04-15T05:16:19.387Z,44.59
2023-04-15T05:17:19.477Z,42.77
2023-04-15T05:18:19.429Z,43.17
2023-04-15T05:19:19.438Z,44.17
2023-04-15T05:20:19.450Z,43.72
2023-04-15T05:21:19.482Z,44.69
2023-04-15T05:22:19.547Z,43.90
2023-04-15T05:23:19.565Z,44.59
2023-04-15T05:24:19.641Z,44.81
2023-04-15T05:25:19.650Z,44.94
2023-04-15T05:26:19.717Z,44.79
2023-04-15T05:27:19.814Z,44.99
2023-04-15T05:28:19.808Z,45.15
2023-04-15T05:29:19.875Z,45.19
2023-04-15T05:30:19.898Z,45.63
2023-04-15T05:31:19.992Z,45.40
2023-04-15T05:32:20.128Z,46.39
2023-04-15T05:33:20.076Z,46.48
2023-04-15T05:34:20.122Z,46.18
2023-04-15T05:35:20.173Z,45.44
2023-04-15T05:36:20.106Z,45.43
2023-04-15T05:37:20.133Z,45.13
2023-04-15T05:38:20.157Z,44.81
2023-04-15T05:39:20.172Z,45.58
2023-04-15T05:40:20.233Z,45.81
2023-04-15T05:41:20.195Z,45.98
2023-04-15T05:42:21.180Z,45.92
2023-04-15T05:43:20.187Z,46.02
2023-04-15T05:44:20.210Z,46.79
2023-04-15T05:45:20.233Z,46.32
2023-04-15T05:46:20.226Z,46.73
2023-04-15T05:47:20.283Z,47.16
2023-04-15T05:48:20.253Z,46.93
2023-04-15T05:49:20.306Z,46.50
2023-04-15T05:50:20.321Z,46.36
2023-04-15T05:51:20.292Z,47.08
2023-04-15T05:52:20.338Z,47.50
2023-04-15T05:53:20.330Z,45.55
2023-04-15T05:54:20.475Z,45.14
2023-04-15T05:55:20.326Z,45.31
2023-04-15T05:56:20.640Z,46.00
2023-04-15T05:57:20.396Z,44.47
2023-04-15T05:58:20.442Z,45.24
2023-04-15T05:59:20.485Z,47.12
2023-04-15T06:00:20.520Z,44.54
2023-04-15T06:01:20.529Z,45.24
2023-04-15T06:02:21.177Z,44.96
2023-04-15T06:03:20.675Z,46.40
2023-04-15T06:04:20.785Z,46.20
2023-04-15T06:05:20.711Z,44.76
2023-04-15T06:06:21.140Z,44.50
2023-04-15T06:07:20.793Z,46.15
2023-04-15T06:08:20.900Z,44.12
2023-04-15T06:09:20.911Z,43.31
2023-04-15T06:10:20.992Z,44.30
2023-04-15T06:11:21.126Z,44.10
2023-04-15T06:12:21.038Z,43.06
2023-04-15T06:13:21.063Z,44.30
2023-04-15T06:14:21.083Z,45.04
2023-04-15T06:15:21.096Z,46.21
2023-04-15T06:16:21.160Z,45.68
2023-04-15T06:17:21.215Z,44.90
2023-04-15T06:18:21.204Z,45.11
2023-04-15T06:19:21.213Z,44.47
2023-04-15T06:20:21.701Z,45.25
2023-04-15T06:21:21.350Z,44.94
2023-04-15T06:22:21.293Z,44.65
2023-04-15T06:23:21.297Z,44.90
2023-04-15T06:24:21.429Z,45.45
2023-04-15T06:25:21.390Z,44.90
2023-04-15T06:26:21.393Z,44.15
2023-04-15T06:27:21.430Z,44.84
2023-04-15T06:28:21.443Z,42.51
2023-04-15T06:29:21.463Z,43.03
2023-04-15T06:30:22.931Z,42.69
2023-04-15T06:31:21.523Z,43.17
2023-04-15T06:32:21.569Z,42.89
2023-04-15T06:33:21.515Z,41.51
2023-04-15T06:34:21.502Z,43.44
2023-04-15T06:35:21.516Z,42.99
2023-04-15T06:36:21.486Z,43.75
2023-04-15T06:37:21.502Z,44.03
2023-04-15T06:38:21.476Z,43.61
2023-04-15T06:39:21.431Z,43.00
2023-04-15T06:40:21.519Z,46.13
2023-04-15T06:41:21.505Z,45.25
2023-04-15T06:42:21.460Z,43.91
2023-04-15T06:43:21.424Z,43.82
2023-04-15T06:44:21.434Z,44.26
2023-04-15T06:45:22.137Z,43.42
2023-04-15T06:46:21.481Z,43.71
2023-04-15T06:47:21.483Z,43.72
2023-04-15T06:48:21.420Z,45.26
2023-04-15T06:49:21.413Z,45.96
2023-04-15T06:50:21.406Z,44.67
2023-04-15T06:51:21.374Z,43.76
2023-04-15T06:52:21.390Z,42.75
2023-04-15T06:53:21.372Z,43.03
2023-04-15T06:54:21.369Z,44.53
2023-04-15T06:55:21.388Z,43.59
2023-04-15T06:56:21.351Z,42.84
2023-04-15T06:57:21.385Z,43.43
2023-04-15T06:58:21.342Z,42.47
2023-04-15T06:59:21.316Z,42.66
2023-04-15T07:00:21.323Z,42.14
2023-04-15T07:01:21.363Z,42.11
2023-04-15T07:02:21.405Z,40.88
2023-04-15T07:03:21.313Z,42.90
2023-04-15T07:04:21.330Z,41.68
2023-04-15T07:05:21.282Z,42.61
2023-04-15T07:06:21.298Z,41.24
2023-04-15T07:07:21.272Z,42.00
2023-04-15T07:08:21.263Z,41.53
2023-04-15T07:09:21.272Z,41.57
2023-04-15T07:10:21.266Z,42.04
2023-04-15T07:11:21.229Z,41.56
2023-04-15T07:12:21.241Z,40.79
2023-04-15T07:13:21.265Z,42.45
2023-04-15T07:14:21.226Z,41.94
2023-04-15T07:15:21.220Z,43.02
2023-04-15T07:16:21.268Z,40.94
2023-04-15T07:17:21.228Z,41.08
2023-04-15T07:18:21.214Z,42.18
2023-04-15T07:19:21.225Z,40.87
2023-04-15T07:20:21.188Z,40.54
2023-04-15T07:21:21.166Z,40.30
2023-04-15T07:22:21.672Z,39.42
2023-04-15T07:23:21.154Z,41.08
2023-04-15T07:24:21.156Z,39.01
2023-04-15T07:25:21.171Z,40.28
2023-04-15T07:26:21.143Z,41.97
2023-04-15T07:27:21.117Z,40.01
2023-04-15T07:28:21.134Z,42.27
2023-04-15T07:29:21.155Z,40.49
2023-04-15T07:30:21.118Z,40.58
2023-04-15T07:31:21.173Z,39.47
2023-04-15T07:32:21.117Z,40.75
2023-04-15T07:33:21.138Z,41.18
2023-04-15T07:34:21.206Z,41.72
2023-04-15T07:35:21.267Z,39.81
2023-04-15T07:36:21.185Z,40.66
2023-04-15T07:37:21.184Z,40.89
2023-04-15T07:38:21.178Z,40.00
2023-04-15T07:39:21.312Z,39.79
2023-04-15T07:40:21.267Z,38.95
2023-04-15T07:41:21.257Z,42.42
2023-04-15T07:42:21.299Z,40.53
2023-04-15T07:43:21.369Z,40.00
2023-04-15T07:44:21.329Z,39.62
2023-04-15T07:45:21.357Z,40.74
2023-04-15T07:46:21.455Z,39.48
2023-04-15T07:47:21.535Z,39.30
2023-04-15T07:48:21.466Z,39.41
2023-04-15T07:49:21.553Z,38.27
2023-04-15T07:50:21.527Z,39.98
2023-04-15T07:51:21.577Z,39.91
2023-04-15T07:52:21.594Z,38.49
2023-04-15T07:53:21.604Z,39.69
2023-04-15T07:54:21.684Z,39.57
2023-04-15T07:55:21.694Z,40.10
2023-04-15T07:56:21.791Z,39.79
2023-04-15T07:57:21.795Z,38.46
2023-04-15T07:58:21.859Z,40.52
2023-04-15T07:59:21.888Z,39.63
2023-04-15T08:00:21.897Z,40.17
2023-04-15T08:01:21.961Z,38.94
2023-04-15T08:02:22.062Z,38.17
2023-04-15T08:03:22.092Z,37.21
2023-04-15T08:04:22.111Z,38.20
2023-04-15T08:05:22.133Z,39.47
2023-04-15T08:06:22.109Z,37.52
2023-04-15T08:07:22.181Z,38.29
2023-04-15T08:08:22.262Z,37.45
2023-04-15T08:09:22.327Z,37.58
2023-04-15T08:10:22.392Z,36.98
2023-04-15T08:11:22.348Z,37.59
2023-04-15T08:12:22.398Z,37.61
2023-04-15T08:13:22.400Z,37.70
2023-04-15T08:14:22.395Z,36.23
2023-04-15T08:15:22.438Z,37.42
2023-04-15T08:16:22.678Z,37.32
2023-04-15T08:17:22.537Z,36.54
2023-04-15T08:18:22.538Z,37.58
2023-04-15T08:19:22.596Z,37.42
2023-04-15T08:20:22.686Z,37.04
2023-04-15T08:21:22.668Z,37.66
2023-04-15T08:22:22.749Z,37.39
2023-04-15T08:23:22.762Z,36.89
2023-04-15T08:24:22.835Z,39.04
2023-04-15T08:25:23.163Z,37.01
2023-04-15T08:26:22.893Z,38.80
2023-04-15T08:27:22.942Z,37.47
2023-04-15T08:28:22.974Z,37.92
2023-04-15T08:29:23.121Z,38.23
2023-04-15T08:30:23.063Z,39.63
2023-04-15T08:31:23.137Z,37.70
2023-04-15T08:32:23.138Z,35.65
2023-04-15T08:33:23.180Z,37.67
2023-04-15T08:34:23.228Z,36.22
2023-04-15T08:35:23.302Z,34.61
2023-04-15T08:36:23.410Z,35.35
2023-04-15T08:37:23.379Z,36.13
2023-04-15T08:38:23.372Z,35.85
2023-04-15T08:39:23.442Z,35.50
2023-04-15T08:40:23.498Z,36.78
2023-04-15T08:41:23.556Z,34.09
2023-04-15T08:42:23.556Z,35.51
2023-04-15T08:43:23.617Z,34.93
2023-04-15T08:44:23.608Z,34.90
2023-04-15T08:45:23.651Z,34.34
2023-04-15T08:46:23.684Z,33.05
2023-04-15T08:47:23.661Z,33.76
2023-04-15T08:48:23.650Z,36.31
2023-04-15T08:49:23.661Z,36.42
2023-04-15T08:50:23.728Z,34.01
2023-04-15T08:51:24.988Z,34.24
2023-04-15T08:52:23.817Z,32.77
2023-04-15T08:53:23.887Z,33.15
2023-04-15T08:54:23.899Z,33.95
2023-04-15T08:55:24.732Z,33.18
2023-04-15T08:56:23.997Z,34.33
2023-04-15T08:57:23.960Z,32.86
2023-04-15T08:58:23.974Z,34.40
2023-04-15T08:59:24.005Z,33.10
2023-04-15T09:00:24.073Z,38.62
2023-04-15T09:01:24.095Z,33.35
2023-04-15T09:02:24.187Z,32.92
2023-04-15T09:03:24.190Z,33.12
2023-04-15T09:04:24.165Z,33.15
2023-04-15T09:05:24.201Z,37.03
2023-04-15T09:06:24.236Z,32.76
2023-04-15T09:07:24.230Z,33.96
2023-04-15T09:08:24.315Z,33.64
2023-04-15T09:09:24.258Z,32.78
2023-04-15T09:10:24.331Z,32.91
2023-04-15T09:11:24.313Z,33.28
2023-04-15T09:12:24.293Z,33.55
2023-04-15T09:13:24.365Z,32.66
2023-04-15T09:14:24.429Z,30.90
2023-04-15T09:15:24.492Z,31.22
2023-04-15T09:16:24.597Z,29.90
2023-04-15T09:17:24.515Z,31.39
2023-04-15T09:18:24.511Z,30.78
2023-04-15T09:19:24.578Z,28.92
2023-04-15T09:20:24.720Z,30.46
2023-04-15T09:21:24.582Z,29.34
2023-04-15T09:22:24.587Z,28.38
2023-04-15T09:23:24.679Z,28.08
2023-04-15T09:24:24.717Z,27.51
2023-04-15T09:25:24.742Z,27.46
2023-04-15T09:26:24.804Z,27.71
2023-04-15T09:27:24.823Z,27.62
2023-04-15T09:28:24.868Z,27.10
2023-04-15T09:29:24.970Z,27.27
2023-04-15T09:30:24.953Z,26.24
2023-04-15T09:31:25.060Z,25.73
2023-04-15T09:32:25.054Z,25.93
2023-04-15T09:33:25.046Z,30.03
2023-04-15T09:34:25.112Z,26.39
2023-04-15T09:35:25.183Z,24.97
2023-04-15T09:36:25.231Z,27.71
2023-04-15T09:37:32.477Z,26.31
2023-04-15T09:38:26.672Z,27.35
2023-04-15T09:39:25.200Z,26.06
2023-04-15T09:40:25.692Z,26.08
2023-04-15T09:41:25.196Z,24.82
2023-04-15T09:42:25.166Z,24.49
2023-04-15T09:43:25.205Z,27.30
2023-04-15T09:44:25.131Z,28.91
2023-04-15T09:45:27.152Z,29.44
2023-04-15T09:46:25.136Z,27.77
2023-04-15T09:47:25.137Z,26.84
2023-04-15T09:48:25.360Z,27.10
2023-04-15T09:49:25.198Z,24.83
2023-04-15T09:50:25.114Z,24.44
2023-04-15T09:51:25.068Z,27.34
2023-04-15T09:52:25.075Z,28.20
2023-04-15T09:53:25.125Z,27.65
2023-04-15T09:54:25.074Z,25.78
2023-04-15T09:55:25.109Z,26.03
2023-04-15T09:56:25.056Z,25.16
2023-04-15T09:57:25.093Z,25.46
2023-04-15T09:58:25.090Z,26.50
2023-04-15T09:59:25.055Z,27.00
2023-04-15T10:00:25.031Z,26.70
2023-04-15T10:01:25.126Z,26.68
2023-04-15T10:02:25.142Z,26.84
2023-04-15T10:03:25.123Z,27.39
2023-04-15T10:04:25.148Z,27.63
2023-04-15T10:05:25.026Z,27.00
2023-04-15T10:06:25.031Z,27.14
2023-04-15T10:07:25.053Z,27.19
2023-04-15T10:08:24.976Z,26.73
2023-04-15T10:09:24.989Z,26.40
2023-04-15T10:10:25.055Z,26.09
2023-04-15T10:11:24.974Z,25.85
2023-04-15T10:12:24.942Z,26.05
2023-04-15T10:13:24.961Z,26.59
2023-04-15T10:14:25.034Z,26.74
2023-04-15T10:15:25.049Z,26.95
2023-04-15T10:16:25.051Z,27.20
2023-04-15T10:17:25.125Z,27.38
2023-04-15T10:18:25.109Z,27.61
2023-04-15T10:19:25.125Z,27.74
2023-04-15T10:20:25.752Z,27.99
2023-04-15T10:21:25.118Z,28.06
2023-04-15T10:22:25.132Z,28.30
2023-04-15T10:23:25.151Z,28.05
2023-04-15T10:24:25.226Z,27.66
2023-04-15T10:25:25.178Z,27.61
2023-04-15T10:26:25.150Z,27.67
2023-04-15T10:27:25.178Z,27.47
2023-04-15T10:28:25.206Z,27.91
2023-04-15T10:29:25.164Z,27.86
2023-04-15T10:30:25.688Z,28.12
2023-04-15T10:31:25.303Z,28.58
2023-04-15T10:32:25.305Z,28.85
2023-04-15T10:33:25.286Z,28.54
2023-04-15T10:34:25.348Z,28.65
2023-04-15T10:35:25.370Z,28.77
2023-04-15T10:36:25.386Z,29.01
2023-04-15T10:37:25.417Z,29.20
2023-04-15T10:38:25.434Z,29.47
2023-04-15T10:39:25.494Z,29.59
2023-04-15T10:40:25.681Z,29.70
2023-04-15T10:41:25.544Z,29.57
2023-04-15T10:42:25.553Z,29.16
2023-04-15T10:43:25.622Z,29.47
2023-04-15T10:44:25.644Z,29.50
2023-04-15T10:45:25.660Z,29.39
2023-04-15T10:46:25.881Z,29.31
2023-04-15T10:47:25.719Z,29.23
2023-04-15T10:48:25.713Z,28.95
2023-04-15T10:49:25.734Z,28.59
2023-04-15T10:50:25.753Z,28.43
2023-04-15T10:51:25.769Z,28.18
2023-04-15T10:52:25.759Z,28.13
2023-04-15T10:53:25.767Z,28.32
2023-04-15T10:54:25.782Z,28.68
2023-04-15T10:55:25.764Z,28.62
2023-04-15T10:56:25.764Z,28.07
2023-04-15T10:57:25.790Z,27.87
2023-04-15T10:58:25.803Z,27.90
2023-04-15T10:59:25.817Z,28.24
2023-04-15T11:00:25.923Z,28.06
2023-04-15T11:01:25.980Z,28.40
2023-04-15T11:02:26.252Z,28.16
2023-04-15T11:03:26.013Z,28.15
2023-04-15T11:04:26.043Z,27.53
2023-04-15T11:05:26.046Z,27.67
2023-04-15T11:06:26.065Z,28.28
2023-04-15T11:07:26.070Z,28.14
2023-04-15T11:08:26.696Z,27.99
2023-04-15T11:09:26.209Z,27.86
2023-04-15T11:10:26.251Z,27.98
2023-04-15T11:11:26.204Z,27.94
2023-04-15T11:12:26.222Z,27.59
2023-04-15T11:13:26.248Z,27.87
2023-04-15T11:14:26.295Z,27.80
2023-04-15T11:15:26.829Z,27.81
2023-04-15T11:16:26.374Z,28.09
2023-04-15T11:17:26.466Z,28.37
2023-04-15T11:18:26.446Z,28.03
2023-04-15T11:19:26.510Z,27.69
2023-04-15T11:20:26.564Z,27.63
2023-04-15T11:21:26.641Z,27.67
2023-04-15T11:22:26.651Z,27.25
2023-04-15T11:23:26.670Z,27.09
2023-04-15T11:24:26.790Z,27.26
2023-04-15T11:25:26.812Z,27.04
2023-04-15T11:26:26.798Z,26.96
2023-04-15T11:27:26.917Z,27.61
2023-04-15T11:28:26.861Z,27.41
2023-04-15T11:29:26.996Z,26.97
2023-04-15T11:30:26.965Z,27.43
2023-04-15T11:31:26.984Z,27.37
2023-04-15T11:32:27.053Z,27.16
2023-04-15T11:33:27.037Z,27.42
2023-04-15T11:34:27.048Z,26.92
2023-04-15T11:35:27.115Z,26.47
2023-04-15T11:36:27.138Z,26.30
2023-04-15T11:37:27.081Z,26.20
2023-04-15T11:38:27.161Z,25.92
2023-04-15T11:39:27.179Z,25.59
2023-04-15T11:40:27.250Z,25.92
2023-04-15T11:41:27.329Z,25.81
2023-04-15T11:42:36.203Z,25.92
2023-04-15T11:43:28.306Z,25.92
2023-04-15T11:44:27.353Z,25.27
2023-04-15T11:45:27.428Z,26.01
2023-04-15T11:46:27.357Z,26.21
2023-04-15T11:47:27.378Z,26.82
2023-04-15T11:48:27.294Z,27.17
2023-04-15T11:49:27.271Z,26.88
2023-04-15T11:50:27.329Z,26.57
2023-04-15T11:51:27.260Z,26.33
2023-04-15T11:52:27.268Z,26.62
2023-04-15T11:53:27.264Z,26.27
2023-04-15T11:54:27.306Z,26.72
2023-04-15T11:55:27.286Z,26.95
2023-04-15T11:56:27.239Z,26.79
2023-04-15T11:57:27.266Z,27.30
2023-04-15T11:58:27.231Z,27.13
2023-04-15T11:59:38.922Z,26.87
2023-04-15T12:00:28.290Z,26.96
2023-04-15T12:01:27.205Z,27.21
2023-04-15T12:02:27.348Z,27.66
2023-04-15T12:03:27.608Z,27.66
2023-04-15T12:04:27.299Z,28.08
2023-04-15T12:05:27.199Z,28.51
2023-04-15T12:06:27.169Z,28.68
2023-04-15T12:07:27.236Z,29.07
2023-04-15T12:08:27.162Z,29.26
2023-04-15T12:09:27.258Z,29.12
2023-04-15T12:10:27.152Z,29.15
2023-04-15T12:11:27.133Z,28.64
2023-04-15T12:12:27.192Z,28.48
2023-04-15T12:13:27.217Z,28.67
2023-04-15T12:14:27.203Z,29.19
2023-04-15T12:15:27.256Z,29.21
2023-04-15T12:16:27.306Z,29.10
2023-04-15T12:17:27.383Z,28.95
2023-04-15T12:18:27.396Z,28.89
2023-04-15T12:19:27.373Z,29.11
2023-04-15T12:20:27.389Z,28.90
2023-04-15T12:21:27.377Z,29.20
2023-04-15T12:22:27.425Z,28.98
2023-04-15T12:23:27.469Z,29.06
2023-04-15T12:24:27.467Z,28.76
2023-04-15T12:25:27.757Z,29.10
2023-04-15T12:26:27.546Z,29.09
2023-04-15T12:27:29.643Z,28.90
2023-04-15T12:28:27.568Z,28.65
2023-04-15T12:29:27.641Z,28.26
2023-04-15T12:30:27.716Z,28.30
2023-04-15T12:31:27.672Z,28.07
2023-04-15T12:32:27.790Z,28.24
2023-04-15T12:33:27.794Z,28.39
2023-04-15T12:34:27.788Z,28.81
2023-04-15T12:35:27.847Z,28.30
2023-04-15T12:36:27.907Z,28.29
2023-04-15T12:37:27.946Z,28.18
2023-04-15T12:38:28.017Z,27.67
2023-04-15T12:39:29.973Z,27.57
2023-04-15T12:40:27.983Z,27.07
2023-04-15T12:41:27.956Z,26.83
2023-04-15T12:42:28.020Z,27.11
2023-04-15T12:43:27.957Z,27.28
2023-04-15T12:44:28.057Z,27.55
2023-04-15T12:45:29.891Z,27.43
2023-04-15T12:46:27.979Z,27.82
2023-04-15T12:47:27.978Z,27.95
2023-04-15T12:48:27.964Z,28.27
2023-04-15T12:49:27.985Z,28.38
2023-04-15T12:50:28.084Z,28.45
2023-04-15T12:51:27.945Z,28.66
2023-04-15T12:52:27.965Z,28.93